Time;durP1;ratioP1;P1;durP2;ratioP2;P2;SDS_P1;SDS_P2;PMS_P1;PMS_P2;Temp;Humidity;BMP_temperature;BMP_pressure;BME280_temperature;BME280_humidity;BME280_pressure;Samples;Min_cycle;Max_cycle;Signal;HPM_P1;HPM_P2
2023/11/04 00:00:14;;;;;;;5.85;0.70;;;;;;;-146.25;100.00;52516.22;2086936;28;35371;-85
2023/11/04 00:01:17;;;;;;;2.63;0.60;;;;;;;-146.25;100.00;52467.56;2086451;28;36757;-85
2023/11/04 00:02:22;;;;;;;2.20;0.45;;;;;;;-146.25;100.00;52473.63;2087088;28;20045;-84
2023/11/04 00:03:23;;;;;;;8.55;0.80;;;;;;;-146.25;100.00;52477.69;2086260;28;38695;-86
2023/11/04 00:04:25;;;;;;;5.32;0.77;;;;;;;-146.25;100.00;52457.41;2083668;28;30831;-85
2023/11/04 00:05:27;;;;;;;3.72;0.45;;;;;;;-146.25;100.00;52518.25;2081098;28;37241;-85
2023/11/04 00:06:29;;;;;;;3.55;0.43;;;;;;;-146.25;100.00;52504.03;2080400;28;37330;-83
2023/11/04 00:07:31;;;;;;;5.63;0.70;;;;;;;-146.25;100.00;52489.84;2080993;28;31139;-84
2023/11/04 00:08:33;;;;;;;5.47;0.70;;;;;;;-146.25;100.00;52493.91;2080417;28;36115;-84
2023/11/04 00:09:35;;;;;;;3.90;0.80;;;;;;;-146.25;100.00;52485.81;2080907;28;37075;-84
2023/11/04 00:10:43;;;;;;;6.47;0.52;;;;;;;-146.25;100.00;52477.69;2080820;28;21313;-84
2023/11/04 00:11:47;;;;;;;3.38;0.93;;;;;;;-146.25;100.00;52493.91;2080200;28;38697;-83
2023/11/04 00:12:49;;;;;;;4.28;0.80;;;;;;;-146.25;100.00;52512.16;2080452;28;32180;-83
2023/11/04 00:13:52;;;;;;;3.70;0.65;;;;;;;-146.25;100.00;52502.03;2080779;28;34349;-85
2023/11/04 00:14:54;;;;;;;3.15;0.60;;;;;;;-146.25;100.00;52441.19;2080596;28;36676;-84
2023/11/04 00:15:56;;;;;;;5.10;0.77;;;;;;;-146.25;100.00;52487.81;2080905;28;33213;-85
2023/11/04 00:16:58;;;;;;;3.28;0.60;;;;;;;-146.25;100.00;52473.63;2080701;28;20887;-84
2023/11/04 00:18:00;;;;;;;4.75;0.50;;;;;;;-146.25;100.00;52497.97;2080232;28;32879;-84
2023/11/04 00:19:02;;;;;;;6.18;0.88;;;;;;;-146.25;100.00;52493.91;2080444;28;36172;-85
2023/11/04 00:20:05;;;;;;;6.60;0.80;;;;;;;-146.25;100.00;52467.56;2080804;28;36034;-86
2023/11/04 00:21:07;;;;;;;4.32;0.75;;;;;;;-146.25;100.00;52455.38;2080293;28;37512;-85
2023/11/04 00:22:09;;;;;;;4.05;0.70;;;;;;;-146.25;100.00;52485.81;2079549;28;38339;-84
2023/11/04 00:23:11;;;;;;;3.80;0.60;;;;;;;-146.25;100.00;52516.22;2080670;28;20034;-84
2023/11/04 00:24:15;;;;;;;3.15;0.75;;;;;;;-146.25;100.00;52479.72;2080284;28;37407;-85
2023/11/04 00:25:17;;;;;;;5.03;0.82;;;;;;;-146.25;100.00;52502.03;2080613;28;34950;-87
2023/11/04 00:26:21;;;;;;;3.10;0.52;;;;;;;-146.25;100.00;52510.13;2080179;28;33118;-86
2023/11/04 00:27:27;;;;;;;2.67;0.50;;;;;;;-146.25;100.00;52469.56;2080443;28;20164;-85
2023/11/04 00:28:31;;;;;;;2.25;0.40;;;;;;;-146.25;100.00;52510.13;2081050;28;20042;-85
2023/11/04 00:29:32;;;;;;;2.15;0.55;;;;;;;-146.25;100.00;52491.88;2079863;28;28023;-84
2023/11/04 00:30:34;;;;;;;3.08;0.65;;;;;;;-146.25;100.00;52500.00;2080003;28;28821;-85
2023/11/04 00:31:36;;;;;;;3.15;0.60;;;;;;;-146.25;100.00;52471.59;2081142;28;20111;-85
2023/11/04 00:32:37;;;;;;;7.40;0.70;;;;;;;-146.25;100.00;52520.28;2080512;28;32457;-85
2023/11/04 00:33:39;;;;;;;5.63;0.75;;;;;;;-146.25;100.00;52493.91;2079948;28;25371;-84
2023/11/04 00:34:42;;;;;;;4.22;0.68;;;;;;;-146.25;100.00;52493.91;2080295;28;24338;-84
2023/11/04 00:35:44;;;;;;;3.33;0.73;;;;;;;-146.25;100.00;52473.63;2087845;28;30403;-86
2023/11/04 00:36:46;;;;;;;5.35;0.65;;;;;;;-146.25;100.00;52493.91;2088082;28;22623;-84
2023/11/04 00:37:49;;;;;;;2.78;0.65;;;;;;;-146.25;100.00;52514.19;2080650;28;20038;-85
2023/11/04 00:38:51;;;;;;;4.35;0.80;;;;;;;-146.25;100.00;52497.97;2081202;28;20034;-85
2023/11/04 00:39:53;;;;;;;5.05;0.68;;;;;;;-146.25;100.00;52477.69;2080640;28;21398;-85
2023/11/04 00:40:55;;;;;;;5.05;0.70;;;;;;;-146.25;100.00;52506.06;2081163;28;20918;-83
2023/11/04 00:41:59;;;;;;;2.90;0.60;;;;;;;-146.25;100.00;52497.97;2079997;28;27239;-84
2023/11/04 00:43:02;;;;;;;3.03;0.50;;;;;;;-146.25;100.00;52491.88;2080494;28;20045;-85
2023/11/04 00:44:05;;;;;;;3.47;0.70;;;;;;;-146.25;100.00;52510.13;2081127;28;20256;-84
2023/11/04 00:45:09;;;;;;;3.47;0.80;;;;;;;-146.25;100.00;52518.25;2080372;28;20985;-86
2023/11/04 00:46:11;;;;;;;3.38;0.45;;;;;;;-146.25;100.00;52542.56;2080075;28;28271;-86
2023/11/04 00:47:15;;;;;;;4.68;0.60;;;;;;;-146.25;100.00;52518.25;2080210;28;20042;-83
2023/11/04 00:48:17;;;;;;;5.38;0.65;;;;;;;-146.25;100.00;52487.81;2079410;28;28086;-85
2023/11/04 00:49:18;;;;;;;3.92;0.77;;;;;;;-146.25;100.00;52497.97;2079752;28;26457;-85
2023/11/04 00:50:20;;;;;;;8.55;0.70;;;;;;;-146.25;100.00;52518.25;2080122;28;31703;-84
2023/11/04 00:51:22;;;;;;;3.30;0.65;;;;;;;-146.25;100.00;52449.31;2080384;28;29055;-83
2023/11/04 00:52:24;;;;;;;3.55;0.70;;;;;;;-146.25;100.00;52489.84;2080252;28;24440;-83
2023/11/04 00:53:26;;;;;;;5.80;0.70;;;;;;;-146.25;100.00;52479.72;2079880;28;29592;-84
2023/11/04 00:54:28;;;;;;;2.97;0.70;;;;;;;-146.25;100.00;52502.03;2080421;28;27437;-85
2023/11/04 00:55:30;;;;;;;2.80;0.93;;;;;;;-146.25;100.00;52479.72;2080991;28;20756;-85
2023/11/04 00:56:33;;;;;;;3.33;0.50;;;;;;;-146.25;100.00;52455.38;2079314;28;32819;-84
2023/11/04 00:57:35;;;;;;;4.10;0.73;;;;;;;-146.25;100.00;52481.75;2072502;28;20085;-84
2023/11/04 00:58:37;;;;;;;5.53;0.70;;;;;;;-146.25;100.00;52473.63;2079660;28;27899;-85
2023/11/04 00:59:39;;;;;;;8.10;0.80;;;;;;;-146.25;100.00;52489.84;2088203;28;31250;-85
2023/11/04 01:00:40;;;;;;;4.43;0.73;;;;;;;-146.25;100.00;52481.75;2080595;28;29543;-84
2023/11/04 01:01:42;;;;;;;3.10;0.80;;;;;;;-146.25;100.00;52495.94;2080998;28;30071;-85
2023/11/04 01:02:45;;;;;;;5.38;0.80;;;;;;;-146.25;100.00;52489.84;2080066;28;20042;-86
2023/11/04 01:03:47;;;;;;;5.78;0.70;;;;;;;-146.25;100.00;52495.94;2079921;28;31165;-85
2023/11/04 01:04:52;;;;;;;4.32;0.85;;;;;;;-146.25;100.00;52477.69;2081017;28;20120;-84
2023/11/04 01:05:54;;;;;;;4.00;0.57;;;;;;;-146.25;100.00;52487.81;2071904;28;20038;-85
2023/11/04 01:06:55;;;;;;;7.07;0.80;;;;;;;-146.25;100.00;52489.84;2072165;28;28881;-84
2023/11/04 01:07:57;;;;;;;5.90;0.70;;;;;;;-146.25;100.00;52469.56;2080579;28;26194;-87
2023/11/04 01:08:59;;;;;;;2.88;0.80;;;;;;;-146.25;100.00;52497.97;2080693;28;20041;-84
2023/11/04 01:10:01;;;;;;;3.35;0.95;;;;;;;-146.25;100.00;52495.94;2080754;28;20049;-87
2023/11/04 01:11:04;;;;;;;5.18;1.10;;;;;;;-146.25;100.00;52449.31;2080381;28;20041;-84
2023/11/04 01:12:06;;;;;;;4.60;0.80;;;;;;;-146.25;100.00;52500.00;2080488;28;22810;-84
2023/11/04 01:13:08;;;;;;;4.38;0.75;;;;;;;-146.25;100.00;52491.88;2079735;28;24126;-84
2023/11/04 01:14:10;;;;;;;5.90;1.15;;;;;;;-146.25;100.00;52534.47;2081297;28;20046;-85
2023/11/04 01:15:12;;;;;;;3.38;0.73;;;;;;;-146.25;100.00;52534.47;2080168;28;25177;-85
2023/11/04 01:16:14;;;;;;;4.28;0.90;;;;;;;-146.25;100.00;52489.84;2080052;28;20049;-84
2023/11/04 01:17:17;;;;;;;3.75;0.90;;;;;;;-146.25;100.00;52487.81;2080260;28;20038;-84
2023/11/04 01:18:19;;;;;;;6.45;1.08;;;;;;;-146.25;100.00;52495.94;2079187;28;31432;-84
2023/11/04 01:19:21;;;;;;;4.35;0.77;;;;;;;-146.25;100.00;52522.28;2080176;28;21016;-84
2023/11/04 01:20:23;;;;;;;4.65;0.88;;;;;;;-146.25;100.00;52481.75;2072107;28;20086;-84
2023/11/04 01:21:24;;;;;;;3.50;0.90;;;;;;;-146.25;100.00;52481.75;2063854;28;22379;-80
2023/11/04 01:22:26;;;;;;;4.70;0.95;;;;;;;-146.25;100.00;52504.03;2080039;28;24365;-83
2023/11/04 01:23:28;;;;;;;6.50;0.90;;;;;;;-146.25;100.00;52504.03;2080716;28;23941;-82
2023/11/04 01:24:30;;;;;;;8.10;1.55;;;;;;;-146.25;100.00;52524.31;2080688;28;20604;-84
2023/11/04 01:25:32;;;;;;;6.93;1.05;;;;;;;-146.25;100.00;52453.34;2080895;28;20034;-83
2023/11/04 01:26:36;;;;;;;5.47;1.00;;;;;;;-146.25;100.00;52502.03;2079306;28;20695;-85
2023/11/04 01:27:40;;;;;;;7.68;1.10;;;;;;;-146.25;100.00;52445.25;2079672;28;28176;-82
2023/11/04 01:28:42;;;;;;;5.28;1.08;;;;;;;-146.25;100.00;52504.03;2080828;28;20038;-87
2023/11/04 01:29:44;;;;;;;5.32;1.13;;;;;;;-146.25;100.00;52467.56;2080157;28;30854;-85
2023/11/04 01:30:45;;;;;;;5.38;0.90;;;;;;;-146.25;100.00;52536.50;2080338;28;24499;-84
2023/11/04 01:31:48;;;;;;;3.92;1.00;;;;;;;-146.25;100.00;52508.09;2080069;28;29262;-82
2023/11/04 01:32:50;;;;;;;5.22;1.05;;;;;;;-146.25;100.00;52485.81;2079607;28;31213;-83
2023/11/04 01:33:52;;;;;;;4.30;0.70;;;;;;;-146.25;100.00;52481.75;2080209;28;20894;-84
2023/11/04 01:34:58;;;;;;;3.38;1.00;;;;;;;-146.25;100.00;52518.25;2081302;28;20045;-84
2023/11/04 01:36:00;;;;;;;5.22;1.38;;;;;;;-146.25;100.00;52479.72;2080310;28;26226;-84
2023/11/04 01:37:02;;;;;;;3.35;1.00;;;;;;;-146.25;100.00;52489.84;2080253;28;20759;-85
2023/11/04 01:38:04;;;;;;;4.30;1.10;;;;;;;-146.25;100.00;52477.69;2079147;28;28980;-83
2023/11/04 01:39:10;;;;;;;4.65;1.10;;;;;;;-146.25;100.00;52487.81;2071976;28;26398;-83
2023/11/04 01:40:12;;;;;;;4.35;0.90;;;;;;;-146.25;100.00;52510.13;2072705;28;20039;-85
2023/11/04 01:41:14;;;;;;;6.47;1.23;;;;;;;-146.25;100.00;52461.47;2070867;28;30498;-84
2023/11/04 01:42:16;;;;;;;5.32;1.10;;;;;;;-146.25;100.00;52495.94;2071372;28;29516;-85
2023/11/04 01:43:24;;;;;;;5.88;1.35;;;;;;;-146.25;100.00;52510.13;2071670;28;20046;-85
2023/11/04 01:44:31;;;;;;;4.85;1.02;;;;;;;-146.25;100.00;52514.19;2071737;28;23153;-85
2023/11/04 01:45:33;;;;;;;4.80;0.98;;;;;;;-146.25;100.00;52497.97;2072225;28;22679;-83
2023/11/04 01:46:35;;;;;;;4.68;0.90;;;;;;;-146.25;100.00;52459.44;2076256;28;28236;-85
2023/11/04 01:47:39;;;;;;;5.85;1.55;;;;;;;-146.25;100.00;52475.66;2079473;28;32810;-84
2023/11/04 01:48:42;;;;;;;2.75;1.10;;;;;;;-146.25;100.00;52493.91;2071883;28;22665;-84
2023/11/04 01:49:44;;;;;;;3.08;1.17;;;;;;;-146.25;100.00;52481.75;2071641;28;32513;-83
2023/11/04 01:50:46;;;;;;;4.68;1.27;;;;;;;-146.25;100.00;52485.81;2071484;28;29655;-84
2023/11/04 01:51:48;;;;;;;5.97;1.40;;;;;;;-146.25;100.00;52481.75;2071718;28;20962;-87
2023/11/04 01:52:49;;;;;;;5.57;1.08;;;;;;;-146.25;100.00;52461.47;2070954;28;35103;-84
2023/11/04 01:53:54;;;;;;;5.47;0.88;;;;;;;-146.25;100.00;52469.56;2071723;28;27183;-85
2023/11/04 01:54:57;;;;;;;4.50;1.00;;;;;;;-146.25;100.00;52497.97;2071591;28;25368;-85
2023/11/04 01:56:06;;;;;;;10.77;1.20;;;;;;;-146.25;100.00;52514.19;2079921;28;20220;-86
2023/11/04 01:57:08;;;;;;;4.03;1.05;;;;;;;-146.25;100.00;52489.84;2080239;28;20045;-86
2023/11/04 01:58:10;;;;;;;4.28;1.50;;;;;;;-146.25;100.00;52485.81;2071428;28;20046;-84
2023/11/04 01:59:13;;;;;;;4.05;1.30;;;;;;;-146.25;100.00;52495.94;2055427;28;20828;-85
2023/11/04 02:00:15;;;;;;;3.50;0.93;;;;;;;-146.25;100.00;52485.81;2062877;28;20031;-86
2023/11/04 02:01:17;;;;;;;6.45;1.17;;;;;;;-146.25;100.00;52485.81;2079606;28;23948;-84
2023/11/04 02:02:21;;;;;;;3.13;0.90;;;;;;;-146.25;100.00;52495.94;2079426;28;20462;-85
2023/11/04 02:03:24;;;;;;;4.32;1.10;;;;;;;-146.25;100.00;52497.97;2080245;28;20053;-86
2023/11/04 02:04:28;;;;;;;3.15;0.88;;;;;;;-146.25;100.00;52493.91;2087023;28;31051;-83
2023/11/04 02:05:30;;;;;;;6.07;1.20;;;;;;;-146.25;100.00;52479.72;2071215;28;20034;-84
2023/11/04 02:06:32;;;;;;;3.70;1.05;;;;;;;-146.25;100.00;52469.56;2055598;28;25963;-83
2023/11/04 02:07:34;;;;;;;3.13;1.02;;;;;;;-146.25;100.00;52471.59;2063378;28;21305;-84
2023/11/04 02:08:38;;;;;;;3.15;1.20;;;;;;;-146.25;100.00;52481.75;2063432;28;20050;-84
2023/11/04 02:09:40;;;;;;;2.83;1.13;;;;;;;-146.25;100.00;52489.84;2071674;28;28266;-84
2023/11/04 02:10:42;;;;;;;4.20;1.33;;;;;;;-146.25;100.00;52493.91;2078769;28;31632;-85
2023/11/04 02:11:44;;;;;;;3.33;1.30;;;;;;;-146.25;100.00;52477.69;2063251;28;20050;-85
2023/11/04 02:12:45;;;;;;;2.33;1.00;;;;;;;-146.25;100.00;52471.59;2063768;28;20125;-83
2023/11/04 02:13:48;;;;;;;3.88;1.13;;;;;;;-146.25;100.00;52495.94;2079542;28;20220;-84
2023/11/04 02:14:53;;;;;;;2.63;0.95;;;;;;;-146.25;100.00;52467.56;2071027;28;31883;-83
2023/11/04 02:15:54;;;;;;;2.30;0.90;;;;;;;-146.25;100.00;52489.84;2071119;28;21729;-84
2023/11/04 02:16:56;;;;;;;4.03;1.30;;;;;;;-146.25;100.00;52477.69;2079669;28;20053;-84
2023/11/04 02:17:58;;;;;;;3.85;1.50;;;;;;;-146.25;100.00;52514.19;2079374;28;30263;-86
2023/11/04 02:19:01;;;;;;;6.85;1.50;;;;;;;-146.25;100.00;52489.84;2072850;28;20109;-83
2023/11/04 02:20:05;;;;;;;4.00;1.10;;;;;;;-146.25;100.00;52514.19;2071800;28;20058;-84
2023/11/04 02:21:06;;;;;;;5.18;1.10;;;;;;;-146.25;100.00;52506.06;2071179;28;30948;-83
2023/11/04 02:22:09;;;;;;;3.38;1.10;;;;;;;-146.25;100.00;52491.88;2072122;28;20144;-84
2023/11/04 02:23:10;;;;;;;7.05;0.95;;;;;;;-146.25;100.00;52473.63;2072025;28;28014;-84
2023/11/04 02:24:13;;;;;;;5.40;1.33;;;;;;;-146.25;100.00;52502.03;2070778;28;35414;-85
2023/11/04 02:25:18;;;;;;;3.70;0.93;;;;;;;-146.25;100.00;52534.47;2071289;28;28748;-84
2023/11/04 02:26:21;;;;;;;3.75;0.90;;;;;;;-146.25;100.00;52497.97;2078395;28;28956;-84
2023/11/04 02:27:23;;;;;;;4.43;0.90;;;;;;;-146.25;100.00;52510.13;2072255;28;20039;-86
2023/11/04 02:28:25;;;;;;;3.03;1.27;;;;;;;-146.25;100.00;52495.94;2071898;28;32484;-84
2023/11/04 02:29:26;;;;;;;7.03;0.90;;;;;;;-146.25;100.00;52485.81;2071671;28;29803;-83
2023/11/04 02:30:28;;;;;;;2.72;0.77;;;;;;;-146.25;100.00;52469.56;2070935;28;28397;-82
2023/11/04 02:31:30;;;;;;;2.38;1.05;;;;;;;-146.25;100.00;52475.66;2071196;28;27013;-84
2023/11/04 02:32:32;;;;;;;2.92;0.70;;;;;;;-146.25;100.00;52526.34;2079503;28;20198;-83
2023/11/04 02:33:34;;;;;;;3.97;0.90;;;;;;;-146.25;100.00;52481.75;2079253;28;24633;-84
2023/11/04 02:34:36;;;;;;;5.70;0.80;;;;;;;-146.25;100.00;52435.09;2071097;28;26923;-84
2023/11/04 02:35:38;;;;;;;4.47;0.60;;;;;;;-146.25;100.00;52502.03;2071436;28;20045;-83
2023/11/04 02:36:39;;;;;;;3.17;0.95;;;;;;;-146.25;100.00;52461.47;2071192;28;29480;-84
2023/11/04 02:37:44;;;;;;;2.65;0.70;;;;;;;-146.25;100.00;52481.75;2066030;28;35819;-83
2023/11/04 02:38:46;;;;;;;3.65;0.60;;;;;;;-146.25;100.00;52485.81;2079635;28;20172;-83
2023/11/04 02:39:48;;;;;;;2.17;0.77;;;;;;;-146.25;100.00;52475.66;2078719;28;34266;-84
2023/11/04 02:40:50;;;;;;;4.10;0.80;;;;;;;-146.25;100.00;52475.66;2071203;28;31435;-82
2023/11/04 02:41:52;;;;;;;4.00;0.70;;;;;;;-146.25;100.00;52483.78;2079780;28;21696;-83
2023/11/04 02:42:54;;;;;;;3.08;0.77;;;;;;;-146.25;100.00;52481.75;2079404;28;33046;-84
2023/11/04 02:43:57;;;;;;;2.58;0.75;;;;;;;-146.25;100.00;52500.00;2079269;28;20156;-83
2023/11/04 02:44:59;;;;;;;2.72;0.70;;;;;;;-146.25;100.00;52481.75;2079132;28;24259;-84
2023/11/04 02:46:01;;;;;;;4.45;0.70;;;;;;;-146.25;100.00;52516.22;2087398;28;29658;-83
2023/11/04 02:47:03;;;;;;;3.80;0.82;;;;;;;-146.25;100.00;52473.63;2079770;28;32970;-83
2023/11/04 02:48:05;;;;;;;4.05;0.70;;;;;;;-146.25;100.00;52500.00;2079994;28;25389;-82
2023/11/04 02:49:08;;;;;;;2.80;0.50;;;;;;;-146.25;100.00;52524.31;2080418;28;20034;-84
2023/11/04 02:50:10;;;;;;;2.13;0.55;;;;;;;-146.25;100.00;52485.81;2079618;28;22995;-83
2023/11/04 02:51:12;;;;;;;2.38;0.40;;;;;;;-146.25;100.00;52497.97;2078858;28;30335;-84
2023/11/04 02:52:14;;;;;;;1.83;0.40;;;;;;;-146.25;100.00;52502.03;2078160;28;26641;-84
2023/11/04 02:53:15;;;;;;;4.82;0.80;;;;;;;-146.25;100.00;52506.06;2079982;28;24973;-83
2023/11/04 02:54:17;;;;;;;2.50;0.52;;;;;;;-146.25;100.00;52528.38;2079890;28;25345;-83
2023/11/04 02:55:20;;;;;;;2.55;0.60;;;;;;;-146.25;100.00;52514.19;2080210;28;20042;-85
2023/11/04 02:56:24;;;;;;;4.95;0.60;;;;;;;-146.25;100.00;52487.81;2079930;28;20917;-84
2023/11/04 02:57:26;;;;;;;3.70;0.52;;;;;;;-146.25;100.00;52506.06;2080113;28;25055;-82
2023/11/04 02:58:28;;;;;;;3.38;0.75;;;;;;;-146.25;100.00;52467.56;2080187;28;20026;-82
2023/11/04 02:59:30;;;;;;;1.90;0.50;;;;;;;-146.25;100.00;52453.34;2079145;28;31191;-85
2023/11/04 03:00:32;;;;;;;2.58;0.50;;;;;;;-146.25;100.00;52479.72;2079892;28;20093;-85
2023/11/04 03:01:36;;;;;;;4.40;0.50;;;;;;;-146.25;100.00;52471.59;2079695;28;28135;-84
2023/11/04 03:02:37;;;;;;;1.75;0.63;;;;;;;-146.25;100.00;52497.97;2078918;28;32026;-82
2023/11/04 03:03:39;;;;;;;3.92;0.40;;;;;;;-146.25;100.00;52487.81;2079763;28;20092;-83
2023/11/04 03:04:41;;;;;;;5.60;0.57;;;;;;;-146.25;100.00;52475.66;2087805;28;20045;-83
2023/11/04 03:05:43;;;;;;;3.30;0.50;;;;;;;-146.25;100.00;52477.69;2079083;28;27125;-84
2023/11/04 03:06:45;;;;;;;3.42;0.43;;;;;;;-146.25;100.00;52477.69;2078737;28;32209;-81
2023/11/04 03:07:47;;;;;;;2.22;0.52;;;;;;;-146.25;100.00;52502.03;2079865;28;25542;-83
2023/11/04 03:08:48;;;;;;;2.25;0.50;;;;;;;-146.25;100.00;52479.72;2079569;28;30497;-82
2023/11/04 03:09:50;;;;;;;3.33;0.50;;;;;;;-146.25;100.00;52473.63;2078943;28;28360;-84
2023/11/04 03:10:56;;;;;;;2.47;0.40;;;;;;;-146.25;100.00;52461.47;2071902;28;20050;-84
2023/11/04 03:11:59;;;;;;;4.65;0.60;;;;;;;-146.25;100.00;52471.59;2080463;28;20060;-83
2023/11/04 03:13:01;;;;;;;2.75;0.40;;;;;;;-146.25;100.00;52495.94;2088884;28;20875;-84
2023/11/04 03:14:03;;;;;;;1.73;0.30;;;;;;;-146.25;100.00;52443.22;2072448;28;20229;-84
2023/11/04 03:15:06;;;;;;;1.65;0.60;;;;;;;-146.25;100.00;52493.91;2072787;28;20168;-82
2023/11/04 03:16:20;;;;;;;2.33;0.50;;;;;;;-146.25;100.00;52504.03;2081152;28;20045;-85
2023/11/04 03:17:22;;;;;;;3.15;0.40;;;;;;;-146.25;100.00;52457.41;2081098;28;24794;-83
2023/11/04 03:18:23;;;;;;;4.88;0.60;;;;;;;-146.25;100.00;52489.84;2080288;28;27618;-84
2023/11/04 03:19:25;;;;;;;2.80;0.30;;;;;;;-146.25;100.00;52477.69;2072485;28;20958;-82
2023/11/04 03:20:27;;;;;;;4.25;0.68;;;;;;;-146.25;100.00;52512.16;2080069;28;32074;-83
2023/11/04 03:21:29;;;;;;;1.10;0.38;;;;;;;-146.25;100.00;52469.56;2064213;28;25480;-84
2023/11/04 03:22:34;;;;;;;4.53;0.52;;;;;;;-146.25;100.00;52489.84;2072449;28;30598;-84
2023/11/04 03:23:35;;;;;;;4.53;0.50;;;;;;;-146.25;100.00;52473.63;2080753;28;30164;-84
2023/11/04 03:24:45;;;;;;;2.42;0.52;;;;;;;-146.25;100.00;52457.41;2081183;28;31078;-83
2023/11/04 03:25:47;;;;;;;3.92;0.50;;;;;;;-146.25;100.00;52491.88;2081499;28;20116;-83
2023/11/04 03:26:49;;;;;;;2.33;0.40;;;;;;;-146.25;100.00;52506.06;2056697;28;20086;-84
2023/11/04 03:27:50;;;;;;;2.25;0.32;;;;;;;-146.25;100.00;52471.59;2064564;28;22109;-83
2023/11/04 03:28:55;;;;;;;4.82;0.50;;;;;;;-146.25;100.00;52481.75;2080503;28;20042;-85
2023/11/04 03:29:57;;;;;;;4.13;0.50;;;;;;;-146.25;100.00;52508.09;2081349;28;20049;-83
2023/11/04 03:30:59;;;;;;;3.55;0.40;;;;;;;-146.25;100.00;52514.19;2080905;28;25509;-83
2023/11/04 03:32:01;;;;;;;3.28;0.60;;;;;;;-146.25;100.00;52485.81;2080030;28;30139;-84
2023/11/04 03:33:03;;;;;;;3.75;0.40;;;;;;;-146.25;100.00;52479.72;2080240;28;28400;-83
2023/11/04 03:34:05;;;;;;;3.15;0.60;;;;;;;-146.25;100.00;52506.06;2080401;28;20984;-83
2023/11/04 03:35:07;;;;;;;2.78;0.40;;;;;;;-146.25;100.00;52497.97;2072289;28;30027;-82
2023/11/04 03:36:09;;;;;;;3.92;0.35;;;;;;;-146.25;100.00;52489.84;2080985;28;20030;-83
2023/11/04 03:37:11;;;;;;;4.38;0.40;;;;;;;-146.25;100.00;52542.56;2080938;28;21011;-83
2023/11/04 03:38:13;;;;;;;2.03;0.50;;;;;;;-146.25;100.00;52504.03;2080303;28;25532;-83
2023/11/04 03:39:17;;;;;;;5.20;0.50;;;;;;;-146.25;100.00;52461.47;2073015;28;20039;-83
2023/11/04 03:40:19;;;;;;;4.97;0.77;;;;;;;-146.25;100.00;52518.25;2072859;28;27796;-83
2023/11/04 03:41:21;;;;;;;2.80;0.50;;;;;;;-146.25;100.00;52516.22;2073575;28;24022;-82
2023/11/04 03:42:22;;;;;;;4.38;0.60;;;;;;;-146.25;100.00;52534.47;2073029;28;20049;-83
2023/11/04 03:43:25;;;;;;;4.20;0.52;;;;;;;-146.25;100.00;52504.03;2072001;28;28096;-82
2023/11/04 03:44:27;;;;;;;4.18;0.55;;;;;;;-146.25;100.00;52489.84;2072505;28;21385;-82
2023/11/04 03:45:29;;;;;;;4.55;0.52;;;;;;;-146.25;100.00;52500.00;2071799;28;34275;-83
2023/11/04 03:46:30;;;;;;;5.13;0.50;;;;;;;-146.25;100.00;52483.78;2072129;28;26948;-82
2023/11/04 03:47:35;;;;;;;3.03;0.60;;;;;;;-146.25;100.00;52508.09;2072564;28;20038;-82
2023/11/04 03:48:37;;;;;;;5.40;0.60;;;;;;;-146.25;100.00;52514.19;2073111;28;24148;-83
2023/11/04 03:49:39;;;;;;;3.75;0.40;;;;;;;-146.25;100.00;52459.44;2072149;28;38592;-83
2023/11/04 03:50:41;;;;;;;1.75;0.32;;;;;;;-146.25;100.00;52467.56;2064373;28;20039;-83
2023/11/04 03:51:43;;;;;;;4.82;0.40;;;;;;;-146.25;100.00;52528.38;2064509;28;25078;-82
2023/11/04 03:52:45;;;;;;;2.90;0.65;;;;;;;-146.25;100.00;52502.03;2072273;28;36422;-85
2023/11/04 03:53:47;;;;;;;4.57;0.60;;;;;;;-146.25;100.00;52510.13;2072632;28;34345;-83
2023/11/04 03:54:56;;;;;;;4.22;0.70;;;;;;;-146.25;100.00;52502.03;2071549;28;36753;-82
2023/11/04 03:55:58;;;;;;;3.50;0.50;;;;;;;-146.25;100.00;52502.03;2072326;28;20903;-82
2023/11/04 03:57:00;;;;;;;5.50;0.40;;;;;;;-146.25;100.00;52489.84;2071225;28;33871;-82
2023/11/04 03:58:01;;;;;;;3.88;0.60;;;;;;;-146.25;100.00;52469.56;2064032;28;29740;-82
2023/11/04 03:59:03;;;;;;;4.82;0.60;;;;;;;-146.25;100.00;52479.72;2071928;28;30129;-83
2023/11/04 04:00:07;;;;;;;3.22;0.50;;;;;;;-146.25;100.00;52510.13;2072082;28;35948;-84
2023/11/04 04:01:15;;;;;;;2.60;0.40;;;;;;;-146.25;100.00;52469.56;2072065;28;20047;-84
2023/11/04 04:02:17;;;;;;;4.22;0.50;;;;;;;-146.25;100.00;52483.78;2056979;28;31447;-84
2023/11/04 04:03:21;;;;;;;4.85;0.50;;;;;;;-146.25;100.00;52489.84;2064336;28;33316;-84
2023/11/04 04:04:23;;;;;;;1.85;0.55;;;;;;;-146.25;100.00;52534.47;2072366;28;37023;-84
2023/11/04 04:05:24;;;;;;;2.92;0.63;;;;;;;-146.25;100.00;52467.56;2072139;28;38960;-84
2023/11/04 04:06:26;;;;;;;4.80;0.65;;;;;;;-146.25;100.00;52489.84;2073092;28;20052;-82
2023/11/04 04:07:28;;;;;;;2.72;0.50;;;;;;;-146.25;100.00;52514.19;2073946;28;31717;-84
2023/11/04 04:08:30;;;;;;;4.15;0.50;;;;;;;-146.25;100.00;52512.16;2079768;28;38230;-81
2023/11/04 04:09:33;;;;;;;4.38;0.50;;;;;;;-146.25;100.00;52469.56;2079928;28;33142;-82
2023/11/04 04:10:36;;;;;;;4.00;0.47;;;;;;;-146.25;100.00;52514.19;2081790;28;21250;-82
2023/11/04 04:11:37;;;;;;;4.28;0.50;;;;;;;-146.25;100.00;52469.56;2080323;28;33116;-83
2023/11/04 04:12:39;;;;;;;4.50;0.55;;;;;;;-146.25;100.00;52514.19;2080211;28;37493;-83
2023/11/04 04:13:41;;;;;;;2.83;0.60;;;;;;;-146.25;100.00;52514.19;2080494;28;35314;-83
2023/11/04 04:14:45;;;;;;;3.35;0.40;;;;;;;-146.25;100.00;52457.41;2080637;28;36590;-83
2023/11/04 04:15:47;;;;;;;3.63;0.70;;;;;;;-146.25;100.00;52489.84;2080668;28;32980;-80
2023/11/04 04:16:49;;;;;;;2.30;0.40;;;;;;;-146.25;100.00;52489.84;2080200;28;38149;-82
2023/11/04 04:17:51;;;;;;;5.90;0.40;;;;;;;-146.25;100.00;52467.56;2080932;28;33819;-82
2023/11/04 04:18:53;;;;;;;4.22;0.50;;;;;;;-146.25;100.00;52437.13;2081015;28;20160;-85
2023/11/04 04:19:58;;;;;;;2.72;0.47;;;;;;;-146.25;100.00;52487.81;2080534;28;20093;-81
2023/11/04 04:21:03;;;;;;;3.15;0.40;;;;;;;-146.25;100.00;52526.34;2072209;28;34564;-81
2023/11/04 04:22:05;;;;;;;3.60;0.50;;;;;;;-146.25;100.00;52471.59;2079564;28;35110;-82
2023/11/04 04:23:10;;;;;;;2.97;0.55;;;;;;;-146.25;100.00;52489.84;2079402;28;36105;-80
2023/11/04 04:24:11;;;;;;;3.42;0.60;;;;;;;-146.25;100.00;52471.59;2081103;28;20877;-81
2023/11/04 04:25:13;;;;;;;2.30;0.35;;;;;;;-146.25;100.00;52471.59;2080102;28;38253;-82
2023/11/04 04:26:22;;;;;;;5.32;0.80;;;;;;;-146.25;100.00;52477.69;2080034;28;37374;-81
2023/11/04 04:27:24;;;;;;;2.20;0.43;;;;;;;-146.25;100.00;52475.66;2079431;28;33646;-81
2023/11/04 04:28:26;;;;;;;3.78;0.40;;;;;;;-146.25;100.00;52497.97;2079616;28;37254;-80
2023/11/04 04:29:28;;;;;;;3.83;0.50;;;;;;;-146.25;100.00;52495.94;2080459;28;20819;-81
2023/11/04 04:30:29;;;;;;;4.30;0.60;;;;;;;-146.25;100.00;52475.66;2079631;28;39681;-81
2023/11/04 04:31:31;;;;;;;2.10;0.32;;;;;;;-146.25;100.00;52497.97;2080603;28;35031;-81
2023/11/04 04:32:33;;;;;;;5.30;0.55;;;;;;;-146.25;100.00;52510.13;2080664;28;35780;-82
2023/11/04 04:33:35;;;;;;;3.15;0.50;;;;;;;-146.25;100.00;52497.97;2080311;28;37390;-81
2023/11/04 04:34:39;;;;;;;1.65;0.50;;;;;;;-146.25;100.00;52500.00;2081197;28;20034;-81
2023/11/04 04:35:41;;;;;;;4.40;0.52;;;;;;;-146.25;100.00;52514.19;2080335;28;36059;-82
2023/11/04 04:36:45;;;;;;;2.70;0.70;;;;;;;-146.25;100.00;52469.56;2080371;28;37019;-81
2023/11/04 04:37:46;;;;;;;4.13;0.43;;;;;;;-146.25;100.00;52453.34;2076683;28;32726;-80
2023/11/04 04:38:51;;;;;;;3.13;0.60;;;;;;;-146.25;100.00;52500.00;2071969;28;35742;-81
2023/11/04 04:39:53;;;;;;;3.30;0.50;;;;;;;-146.25;100.00;52510.13;2072203;28;31610;-81
2023/11/04 04:40:54;;;;;;;3.38;0.60;;;;;;;-146.25;100.00;52465.53;2072255;28;34805;-81
2023/11/04 04:41:56;;;;;;;2.28;0.40;;;;;;;-146.25;100.00;52502.03;2072247;28;32813;-81
2023/11/04 04:42:58;;;;;;;3.47;0.50;;;;;;;-146.25;100.00;52502.03;2072064;28;20080;-83
2023/11/04 04:44:01;;;;;;;3.88;0.60;;;;;;;-146.25;100.00;52463.50;2071521;28;35085;-83